createdAt,value
2023-04-05T00:02:54.658Z,8.50
2023-04-05T00:05:40.429Z,8.40
2023-04-05T00:08:26.982Z,8.30
2023-04-05T00:11:12.235Z,8.20
2023-04-05T00:14:01.638Z,8.10
2023-04-05T00:16:47.079Z,8.20
2023-04-05T00:19:34.006Z,8.30
2023-04-05T00:22:20.224Z,8.20
2023-04-05T00:25:05.743Z,8.10
2023-04-05T00:27:51.478Z,7.90
2023-04-05T00:30:36.818Z,7.80
2023-04-05T00:33:22.487Z,7.60
2023-04-05T00:36:15.385Z,7.80
2023-04-05T00:39:01.302Z,7.90
2023-04-05T00:41:48.623Z,7.80
2023-04-05T00:44:34.898Z,7.90
2023-04-05T00:47:20.649Z,7.70
2023-04-05T00:50:08.663Z,7.80
2023-04-05T00:52:54.438Z,7.80
2023-04-05T00:55:40.997Z,7.60
2023-04-05T00:58:26.385Z,7.60
2023-04-05T01:01:22.427Z,7.50
2023-04-05T01:04:11.497Z,7.30
2023-04-05T01:07:13.067Z,7.40
2023-04-05T01:09:59.817Z,7.20
2023-04-05T01:12:46.527Z,7.10
2023-04-05T01:15:32.625Z,7.10
2023-04-05T01:18:18.912Z,7.10
2023-04-05T01:21:23.252Z,7.10
2023-04-05T01:24:09.900Z,6.90
2023-04-05T01:27:08.524Z,6.70
2023-04-05T01:30:04.471Z,6.50
2023-04-05T01:33:08.980Z,6.50
2023-04-05T01:36:14.836Z,6.50
2023-04-05T01:39:01.606Z,6.60
2023-04-05T01:41:47.113Z,6.70
2023-04-05T01:44:32.995Z,6.60
2023-04-05T01:47:18.562Z,6.40
2023-04-05T01:50:04.103Z,6.60
2023-04-05T01:52:49.496Z,6.50
2023-04-05T01:55:35.300Z,6.80
2023-04-05T01:58:21.179Z,6.90
2023-04-05T02:01:06.966Z,6.50
2023-04-05T02:03:54.093Z,6.50
2023-04-05T02:06:41.077Z,6.40
2023-04-05T02:09:26.745Z,6.40
2023-04-05T02:12:12.498Z,6.30
2023-04-05T02:20:32.978Z,6.40
2023-04-05T02:26:04.527Z,6.10
2023-04-05T02:28:49.848Z,6.00
2023-04-05T02:31:35.769Z,7.10
2023-04-05T02:34:22.983Z,7.30
2023-04-05T02:37:08.246Z,8.30
2023-04-05T02:39:54.591Z,9.30
2023-04-05T02:42:40.153Z,10.00
2023-04-05T02:45:27.936Z,10.50
2023-04-05T02:48:15.846Z,8.70
2023-04-05T02:51:01.668Z,11.40
2023-04-05T02:53:48.165Z,11.60
2023-04-05T02:56:34.668Z,11.80
2023-04-05T02:59:21.437Z,12.00
2023-04-05T03:02:06.967Z,12.20
2023-04-05T03:04:56.066Z,12.30
2023-04-05T03:07:42.639Z,12.40
2023-04-05T03:10:34.942Z,12.50
2023-04-05T03:13:27.750Z,12.50
2023-04-05T03:16:14.445Z,12.60
2023-04-05T03:19:02.497Z,12.70
2023-04-05T03:21:50.553Z,12.70
2023-04-05T03:24:44.679Z,12.80
2023-04-05T03:27:32.842Z,12.90
2023-04-05T03:30:28.252Z,12.90
2023-04-05T03:33:18.959Z,13.00
2023-04-05T03:36:07.333Z,13.00
2023-04-05T03:38:57.045Z,13.00
2023-04-05T03:41:42.660Z,13.10
2023-04-05T03:44:29.643Z,13.10
2023-04-05T03:47:15.752Z,13.10
2023-04-05T03:50:02.897Z,13.20
2023-04-05T03:52:49.914Z,13.20
2023-04-05T03:55:35.605Z,13.20
2023-04-05T03:58:23.276Z,13.20
2023-04-05T04:01:09.445Z,13.30
2023-04-05T04:03:54.925Z,13.30
2023-04-05T04:06:42.585Z,13.30
2023-04-05T04:09:29.858Z,13.40
2023-04-05T04:12:17.743Z,13.40
2023-04-05T04:15:10.991Z,13.40
2023-04-05T04:18:04.492Z,13.40
2023-04-05T04:21:10.809Z,13.40
2023-04-05T04:24:18.800Z,13.40
2023-04-05T04:27:10.628Z,13.40
2023-04-05T04:30:15.747Z,13.40
2023-04-05T04:33:20.219Z,13.40
2023-04-05T04:36:35.094Z,13.50
2023-04-05T04:39:39.776Z,13.50
2023-04-05T04:42:43.734Z,13.50
2023-04-05T04:46:11.020Z,13.50
2023-04-05T04:49:13.435Z,13.50
2023-04-05T04:52:04.881Z,13.50
2023-04-05T04:54:50.895Z,13.50
2023-04-05T04:57:36.569Z,13.50
2023-04-05T05:00:22.843Z,13.50
2023-04-05T05:03:11.566Z,13.50
2023-04-05T05:05:57.331Z,13.50
2023-04-05T05:08:49.109Z,13.50
2023-04-05T05:11:34.674Z,13.50
2023-04-05T05:14:21.620Z,13.50
2023-04-05T05:17:08.712Z,13.50
2023-04-05T05:19:56.284Z,13.50
2023-04-05T05:22:42.424Z,13.50
2023-04-05T05:25:28.515Z,13.60
2023-04-05T05:28:15.006Z,13.60
2023-04-05T05:31:00.886Z,13.60
2023-04-05T05:33:49.545Z,13.60
2023-04-05T05:36:35.209Z,13.60
2023-04-05T05:39:20.744Z,13.60
2023-04-05T05:42:06.467Z,13.60
2023-04-05T05:44:51.870Z,13.60
2023-04-05T05:47:37.709Z,13.60
2023-04-05T05:50:22.938Z,13.50
2023-04-05T05:53:08.750Z,13.60
2023-04-05T05:55:54.307Z,13.60
2023-04-05T05:58:39.964Z,13.50
2023-04-05T06:01:28.128Z,13.60
2023-04-05T06:04:14.062Z,13.60
2023-04-05T06:06:59.557Z,13.60
2023-04-05T06:09:45.412Z,13.60
2023-04-05T06:12:30.888Z,13.70
2023-04-05T06:15:16.280Z,13.60
2023-04-05T06:18:02.301Z,13.70
2023-04-05T06:20:48.143Z,13.70
2023-04-05T06:23:33.935Z,13.60
2023-04-05T06:26:20.541Z,13.60
2023-04-05T06:29:06.281Z,13.60
2023-04-05T06:31:52.047Z,13.70
2023-04-05T06:34:37.592Z,13.70
2023-04-05T06:37:23.091Z,13.70
2023-04-05T06:40:09.109Z,13.70
2023-04-05T06:42:54.860Z,13.70
2023-04-05T06:45:45.550Z,13.70
2023-04-05T06:48:33.436Z,13.70
2023-04-05T06:51:19.049Z,13.80
2023-04-05T06:54:04.631Z,13.80
2023-04-05T06:56:50.793Z,13.80
2023-04-05T06:59:36.341Z,13.80
2023-04-05T07:02:22.172Z,13.80
2023-04-05T07:05:09.017Z,13.80
2023-04-05T07:07:54.769Z,13.80
2023-04-05T07:10:41.657Z,13.80
2023-04-05T07:13:27.378Z,13.80
2023-04-05T07:16:12.790Z,13.80
2023-04-05T07:18:58.531Z,16.60
2023-04-05T07:21:44.497Z,13.80
2023-04-05T07:24:30.000Z,13.80
2023-04-05T07:27:15.775Z,13.80
2023-04-05T07:30:01.509Z,13.90
2023-04-05T07:32:47.362Z,13.90
2023-04-05T07:35:38.261Z,13.90
2023-04-05T07:38:35.372Z,13.90
2023-04-05T07:41:26.246Z,13.90
2023-04-05T07:44:12.103Z,13.90
2023-04-05T07:46:57.853Z,14.00
2023-04-05T07:49:43.827Z,13.90
2023-04-05T07:52:29.333Z,14.00
2023-04-05T07:55:14.784Z,14.00
2023-04-05T07:58:00.456Z,14.00
2023-04-05T08:00:46.257Z,14.00
2023-04-05T08:03:32.323Z,14.00
2023-04-05T08:06:18.104Z,14.00
2023-04-05T08:09:05.795Z,14.10
2023-04-05T08:11:51.442Z,14.10
2023-04-05T08:14:37.039Z,14.10
2023-04-05T08:17:23.751Z,14.20
2023-04-05T08:20:09.817Z,14.20
2023-04-05T08:22:55.408Z,14.20
2023-04-05T08:25:42.658Z,14.20
2023-04-05T08:28:28.321Z,14.20
2023-04-05T08:31:14.138Z,14.20
2023-04-05T08:33:59.767Z,14.30
2023-04-05T08:36:46.065Z,14.30
2023-04-05T08:39:34.745Z,14.30
2023-04-05T08:42:29.437Z,14.30
2023-04-05T08:45:17.850Z,14.30
2023-04-05T08:48:04.126Z,14.30
2023-04-05T08:50:53.293Z,14.40
2023-04-05T08:53:38.536Z,14.40
2023-04-05T08:56:29.019Z,14.40
2023-04-05T08:59:16.131Z,14.50
2023-04-05T09:02:04.075Z,14.50
2023-04-05T09:04:49.534Z,14.50
2023-04-05T09:07:35.660Z,14.60
2023-04-05T09:10:21.332Z,14.60
2023-04-05T09:13:11.624Z,14.60
2023-04-05T09:16:01.232Z,14.60
2023-04-05T09:18:46.705Z,14.70
2023-04-05T09:21:52.499Z,14.70
2023-04-05T09:24:42.225Z,14.70
2023-04-05T09:27:27.763Z,14.80
2023-04-05T09:30:25.262Z,14.80
2023-04-05T09:33:15.598Z,14.90
2023-04-05T09:36:01.537Z,14.90
2023-04-05T09:38:47.679Z,14.90
2023-04-05T09:41:33.819Z,15.00
2023-04-05T09:44:19.458Z,15.00
2023-04-05T09:47:18.209Z,15.00
2023-04-05T09:50:16.173Z,15.00
2023-04-05T09:53:07.937Z,15.10
2023-04-05T09:55:53.597Z,15.00
2023-04-05T09:58:39.256Z,15.10
2023-04-05T10:01:27.039Z,15.20
2023-04-05T10:04:12.580Z,15.20
2023-04-05T10:06:58.577Z,15.30
2023-04-05T10:09:44.934Z,15.30
2023-04-05T10:12:32.054Z,15.30
2023-04-05T10:15:18.777Z,15.40
2023-04-05T10:18:08.522Z,15.40
2023-04-05T10:20:54.170Z,15.50
2023-04-05T10:23:41.994Z,15.60
2023-04-05T10:26:36.631Z,15.60
2023-04-05T10:29:26.356Z,15.60
2023-04-05T10:32:17.751Z,15.70
2023-04-05T10:35:09.391Z,15.80
2023-04-05T10:37:57.789Z,15.80
2023-04-05T10:40:46.438Z,15.90
2023-04-05T10:43:32.387Z,15.90
2023-04-05T10:46:21.169Z,16.00
2023-04-05T10:49:23.312Z,16.10
2023-04-05T10:52:09.546Z,13.20
2023-04-05T10:54:57.379Z,16.20
2023-04-05T10:57:44.550Z,16.30
2023-04-05T11:00:30.233Z,16.30
2023-04-05T11:03:34.674Z,16.40
2023-04-05T11:06:29.538Z,16.30
2023-04-05T11:09:20.320Z,16.40
2023-04-05T11:12:05.884Z,16.40
2023-04-05T11:14:52.673Z,16.50
2023-04-05T11:17:38.317Z,16.50
2023-04-05T11:20:24.129Z,16.60
2023-04-05T11:23:10.552Z,16.70
2023-04-05T11:25:59.809Z,16.80
2023-04-05T11:28:45.559Z,16.90
2023-04-05T11:31:30.895Z,17.00
2023-04-05T11:34:25.173Z,17.10
2023-04-05T11:37:10.900Z,17.20
2023-04-05T11:40:16.558Z,17.20
2023-04-05T11:43:02.723Z,17.30
2023-04-05T11:45:48.445Z,17.40
2023-04-05T11:48:34.871Z,17.50
2023-04-05T11:51:20.927Z,17.50
2023-04-05T11:54:06.277Z,17.60
2023-04-05T11:56:52.311Z,17.60
2023-04-05T11:59:37.833Z,17.70
2023-04-05T12:02:23.582Z,17.70
2023-04-05T12:05:09.571Z,17.90
2023-04-05T12:07:54.798Z,17.90
2023-04-05T12:10:40.518Z,18.10
2023-04-05T12:13:29.778Z,18.20
2023-04-05T12:16:16.136Z,18.20
2023-04-05T12:19:01.635Z,18.30
2023-04-05T12:21:47.268Z,18.30
2023-04-05T12:24:32.841Z,18.40
2023-04-05T12:27:18.469Z,18.40
2023-04-05T12:30:08.389Z,18.50
2023-04-05T12:32:54.595Z,18.50
2023-04-05T12:35:40.214Z,18.50
2023-04-05T12:38:27.492Z,18.60
2023-04-05T12:41:13.242Z,18.60
2023-04-05T12:44:01.984Z,18.60
2023-04-05T12:46:47.830Z,18.60
2023-04-05T12:49:39.745Z,18.60
2023-04-05T12:52:28.469Z,18.60
2023-04-05T12:55:17.165Z,18.80
2023-04-05T12:58:03.759Z,18.80
2023-04-05T13:00:49.048Z,19.00
2023-04-05T13:03:35.344Z,19.10
2023-04-05T13:06:21.474Z,19.20
2023-04-05T13:09:06.847Z,19.30
2023-04-05T13:11:52.428Z,19.40
2023-04-05T13:14:38.039Z,19.60
2023-04-05T13:17:23.678Z,19.60
2023-04-05T13:20:09.906Z,19.80
2023-04-05T13:22:55.430Z,19.90
2023-04-05T13:25:42.201Z,20.00
2023-04-05T13:28:28.126Z,20.00
2023-04-05T13:31:15.586Z,16.40
2023-04-05T13:34:01.650Z,20.20
2023-04-05T13:36:49.118Z,20.20
2023-04-05T13:39:34.337Z,21.50
2023-04-05T13:42:20.488Z,20.40
2023-04-05T13:45:06.595Z,20.40
2023-04-05T13:47:52.200Z,20.40
2023-04-05T13:50:37.870Z,20.50
2023-04-05T13:53:23.634Z,20.50
2023-04-05T13:56:09.278Z,20.50
2023-04-05T13:58:55.280Z,20.60
2023-04-05T14:01:40.679Z,20.60
2023-04-05T14:04:26.125Z,20.70
2023-04-05T14:07:11.803Z,20.70
2023-04-05T14:09:57.636Z,20.80
2023-04-05T14:12:42.931Z,20.80
2023-04-05T14:15:29.961Z,20.80
2023-04-05T14:18:15.515Z,20.70
2023-04-05T14:21:01.080Z,20.70
2023-04-05T14:23:46.985Z,20.50
2023-04-05T14:26:32.721Z,20.30
2023-04-05T14:29:18.852Z,20.20
2023-04-05T14:32:04.788Z,20.00
2023-04-05T14:34:50.727Z,19.80
2023-04-05T14:37:36.525Z,19.60
2023-04-05T14:40:22.916Z,19.50
2023-04-05T14:43:08.416Z,19.40
2023-04-05T14:45:53.979Z,19.30
2023-04-05T14:48:39.494Z,19.10
2023-04-05T14:51:26.046Z,19.10
2023-04-05T14:54:11.567Z,19.10
2023-04-05T14:56:57.329Z,19.10
2023-04-05T14:59:43.573Z,19.00
2023-04-05T15:02:29.204Z,19.10
2023-04-05T15:05:14.865Z,19.10
2023-04-05T15:08:00.468Z,19.10
2023-04-05T15:10:46.041Z,19.20
2023-04-05T15:13:31.457Z,19.30
2023-04-05T15:16:16.796Z,19.50
2023-04-05T15:19:02.710Z,19.80
2023-04-05T15:21:48.209Z,19.80
2023-04-05T15:24:34.046Z,19.90
2023-04-05T15:27:19.729Z,19.90
2023-04-05T15:30:06.058Z,19.90
2023-04-05T15:32:52.711Z,19.90
2023-04-05T15:35:38.639Z,20.20
2023-04-05T15:38:24.051Z,20.40
2023-04-05T15:41:09.786Z,20.70
2023-04-05T15:43:55.251Z,21.00
2023-04-05T15:46:41.021Z,21.10
2023-04-05T15:49:26.417Z,21.10
2023-04-05T15:52:12.066Z,21.10
2023-04-05T15:54:57.445Z,21.20
2023-04-05T15:57:43.270Z,21.20
2023-04-05T16:00:28.995Z,21.30
2023-04-05T16:03:14.705Z,21.30
2023-04-05T16:06:00.312Z,21.40
2023-04-05T16:08:46.198Z,21.50
2023-04-05T16:11:31.968Z,21.50
2023-04-05T16:14:17.661Z,21.50
2023-04-05T16:17:03.618Z,21.60
2023-04-05T16:19:49.026Z,21.60
2023-04-05T16:22:34.643Z,21.60
2023-04-05T16:25:20.312Z,21.60
2023-04-05T16:28:06.769Z,21.60
2023-04-05T16:30:53.022Z,21.60
2023-04-05T16:33:38.595Z,21.60
2023-04-05T16:36:23.958Z,21.50
2023-04-05T16:39:09.558Z,21.40
2023-04-05T16:41:54.886Z,21.30
2023-04-05T16:44:40.692Z,21.10
2023-04-05T16:47:26.254Z,20.90
2023-04-05T16:50:11.840Z,20.80
2023-04-05T16:52:57.735Z,20.70
2023-04-05T16:55:43.233Z,20.50
2023-04-05T16:58:28.585Z,20.30
2023-04-05T17:01:14.366Z,20.20
2023-04-05T17:04:00.150Z,20.10
2023-04-05T17:06:45.658Z,20.00
2023-04-05T17:09:32.250Z,19.80
2023-04-05T17:12:17.994Z,19.70
2023-04-05T17:15:03.679Z,17.00
2023-04-05T17:17:49.254Z,19.50
2023-04-05T17:20:34.752Z,19.30
2023-04-05T17:23:20.262Z,19.30
2023-04-05T17:26:05.635Z,19.10
2023-04-05T17:28:51.444Z,19.00
2023-04-05T17:31:36.787Z,18.90
2023-04-05T17:34:22.542Z,18.80
2023-04-05T17:37:07.890Z,18.80
2023-04-05T17:39:53.672Z,18.80
2023-04-05T17:42:39.436Z,18.70
2023-04-05T17:45:25.043Z,18.70
2023-04-05T17:48:10.912Z,18.70
2023-04-05T17:50:56.768Z,18.70
2023-04-05T17:53:42.477Z,18.70
2023-04-05T17:56:27.980Z,18.70
2023-04-05T17:59:13.564Z,18.60
2023-04-05T18:01:59.222Z,18.50
2023-04-05T18:04:44.898Z,18.40
2023-04-05T18:07:30.565Z,18.40
2023-04-05T18:10:16.021Z,18.30
2023-04-05T18:13:03.427Z,18.20
2023-04-05T18:15:54.600Z,18.20
2023-04-05T18:18:40.474Z,18.10
2023-04-05T18:21:27.119Z,18.10
2023-04-05T18:24:12.749Z,18.10
2023-04-05T18:26:58.365Z,18.00
2023-04-05T18:29:46.134Z,18.00
2023-04-05T18:32:31.588Z,17.90
2023-04-05T18:35:17.555Z,17.90
2023-04-05T18:38:04.114Z,17.90
2023-04-05T18:40:49.516Z,17.80
2023-04-05T18:43:35.387Z,17.80
2023-04-05T18:46:24.009Z,17.80
2023-04-05T18:49:09.896Z,17.70
2023-04-05T18:51:55.971Z,17.70
2023-04-05T18:54:41.605Z,17.60
2023-04-05T18:57:27.202Z,17.60
2023-04-05T19:00:12.796Z,17.60
2023-04-05T19:02:58.438Z,17.50
2023-04-05T19:05:51.095Z,17.50
2023-04-05T19:08:36.672Z,17.50
2023-04-05T19:11:22.399Z,17.50
2023-04-05T19:14:07.748Z,17.40
2023-04-05T19:16:53.487Z,17.40
2023-04-05T19:19:38.836Z,17.40
2023-04-05T19:22:24.528Z,17.40
2023-04-05T19:25:10.370Z,17.40
2023-04-05T19:27:56.595Z,17.40
2023-04-05T19:30:42.986Z,17.30
2023-04-05T19:33:30.298Z,17.30
2023-04-05T19:36:15.758Z,17.30
2023-04-05T19:39:03.311Z,17.20
2023-04-05T19:41:48.893Z,17.30
2023-04-05T19:44:35.744Z,17.20
2023-04-05T19:47:21.782Z,17.20
2023-04-05T19:50:10.099Z,17.20
2023-04-05T19:52:55.474Z,17.20
2023-04-05T19:55:40.954Z,17.10
2023-04-05T19:58:27.446Z,17.10
2023-04-05T20:01:22.939Z,17.10
2023-04-05T20:04:11.088Z,17.10
2023-04-05T20:06:56.676Z,17.10
2023-04-05T20:09:42.334Z,17.00
2023-04-05T20:12:27.780Z,17.00
2023-04-05T20:15:13.614Z,17.00
2023-04-05T20:17:58.969Z,16.90
2023-04-05T20:20:44.669Z,16.90
2023-04-05T20:23:30.486Z,16.90
2023-04-05T20:26:16.986Z,16.90
2023-04-05T20:29:03.665Z,16.90
2023-04-05T20:31:49.364Z,16.80
2023-04-05T20:34:36.503Z,16.80
2023-04-05T20:37:22.283Z,16.80
2023-04-05T20:40:08.033Z,16.80
2023-04-05T20:42:53.546Z,16.80
2023-04-05T20:45:39.175Z,16.80
2023-04-05T20:48:24.793Z,16.80
2023-04-05T20:51:10.881Z,16.70
2023-04-05T20:53:56.338Z,16.70
2023-04-05T20:56:43.539Z,16.70
2023-04-05T20:59:29.117Z,16.70
2023-04-05T21:02:15.064Z,16.70
2023-04-05T21:05:00.726Z,16.60
2023-04-05T21:07:46.525Z,16.60
2023-04-05T21:10:32.770Z,16.60
2023-04-05T21:13:18.255Z,16.60
2023-04-05T21:16:04.158Z,16.50
2023-04-05T21:18:49.989Z,16.60
2023-04-05T21:21:35.636Z,16.60
2023-04-05T21:24:21.000Z,16.60
2023-04-05T21:27:06.702Z,16.60
2023-04-05T21:29:52.287Z,16.50
2023-04-05T21:32:38.237Z,16.50
2023-04-05T21:35:23.824Z,16.50
2023-04-05T21:38:09.358Z,16.50
2023-04-05T21:40:55.706Z,16.50
2023-04-05T21:43:41.337Z,16.50
2023-04-05T21:46:27.174Z,16.50
2023-04-05T21:49:12.550Z,16.40
2023-04-05T21:51:58.121Z,16.40
2023-04-05T21:54:43.914Z,16.40
2023-04-05T21:57:29.911Z,16.40
2023-04-05T22:00:15.807Z,16.40
2023-04-05T22:03:01.384Z,16.40
2023-04-05T22:05:46.930Z,16.30
2023-04-05T22:08:34.331Z,15.00
2023-04-05T22:11:19.839Z,14.10
2023-04-05T22:14:05.570Z,13.30
2023-04-05T22:16:51.474Z,12.70
2023-04-05T22:19:37.075Z,12.30
2023-04-05T22:22:22.863Z,12.00
2023-04-05T22:25:09.144Z,11.70
2023-04-05T22:27:59.751Z,11.40
2023-04-05T22:30:45.936Z,11.20
2023-04-05T22:33:31.568Z,11.20
2023-04-05T22:36:17.170Z,11.00
2023-04-05T22:39:02.893Z,10.90
2023-04-05T22:41:48.551Z,10.70
2023-04-05T22:44:34.262Z,10.50
2023-04-05T22:47:19.753Z,10.30
2023-04-05T22:50:05.883Z,10.30
2023-04-05T22:52:51.523Z,10.20
2023-04-05T22:55:39.748Z,9.90
2023-04-05T22:58:25.098Z,9.80
2023-04-05T23:01:10.958Z,9.80
2023-04-05T23:03:56.591Z,9.80
2023-04-05T23:06:41.896Z,9.70
2023-04-05T23:09:27.789Z,9.70
2023-04-05T23:12:13.553Z,9.60
2023-04-05T23:14:59.204Z,9.50
2023-04-05T23:17:44.776Z,9.50
2023-04-05T23:20:30.027Z,9.40
2023-04-05T23:23:16.049Z,9.50
2023-04-05T23:26:01.738Z,9.30
2023-04-05T23:28:47.499Z,9.30
2023-04-05T23:31:33.401Z,9.20
2023-04-05T23:34:18.939Z,9.10
2023-04-05T23:37:04.733Z,8.80
2023-04-05T23:39:49.966Z,8.80
2023-04-05T23:42:35.708Z,8.70
2023-04-05T23:45:21.534Z,7.90
2023-04-05T23:48:06.940Z,8.50
2023-04-05T23:50:52.412Z,8.50
2023-04-05T23:53:37.825Z,8.40
2023-04-05T23:56:23.073Z,8.50
2023-04-05T23:59:09.102Z,8.40
